Time;durP1;ratioP1;P1;durP2;ratioP2;P2;SDS_P1;SDS_P2;PMS_P1;PMS_P2;Temp;Humidity;BMP_temperature;BMP_pressure;BME280_temperature;BME280_humidity;BME280_pressure;Samples;Min_cycle;Max_cycle;Signal;HPM_P1;HPM_P2
2023/12/14 00:01:16;;;;;;;43.13;22.67;;;8.70;99.90;;;;;;5091907;28;20672;-59
2023/12/14 00:03:44;;;;;;;45.00;21.80;;;8.50;99.90;;;;;;5091442;28;20628;-59
2023/12/14 00:06:10;;;;;;;43.88;21.55;;;8.70;99.90;;;;;;5091301;28;20173;-58
2023/12/14 00:08:35;;;;;;;43.60;22.73;;;8.70;99.90;;;;;;5091382;28;20173;-59
2023/12/14 00:11:08;;;;;;;42.55;21.65;;;8.60;99.90;;;;;;5091201;28;20161;-57
2023/12/14 00:13:34;;;;;;;44.70;22.85;;;8.50;99.90;;;;;;5091279;28;20219;-56
2023/12/14 00:16:00;;;;;;;49.47;23.75;;;8.70;99.90;;;;;;5095457;28;20165;-56
2023/12/14 00:18:26;;;;;;;47.15;23.25;;;8.80;99.90;;;;;;5095515;28;20527;-52
2023/12/14 00:20:53;;;;;;;49.15;23.45;;;8.80;99.90;;;;;;5095666;28;20629;-59
2023/12/14 00:23:19;;;;;;;49.47;23.55;;;8.80;99.90;;;;;;5108824;28;20694;-48
2023/12/14 00:25:45;;;;;;;44.33;22.77;;;7.40;99.90;;;;;;5116520;28;20197;-60
2023/12/14 00:28:10;;;;;;;47.03;22.98;;;8.70;99.90;;;;;;5115749;28;20164;-57
2023/12/14 00:30:36;;;;;;;47.15;22.65;;;8.60;99.90;;;;;;5115926;28;20628;-59
2023/12/14 00:33:02;;;;;;;44.10;20.88;;;8.50;99.90;;;;;;5115689;28;20192;-60
2023/12/14 00:35:27;;;;;;;37.70;19.15;;;8.60;99.90;;;;;;5115424;28;20695;-59
2023/12/14 00:37:53;;;;;;;34.38;18.52;;;8.70;99.90;;;;;;5115515;28;20196;-58
2023/12/14 00:40:18;;;;;;;37.45;20.25;;;8.50;99.90;;;;;;5115899;28;20200;-59
2023/12/14 00:42:44;;;;;;;35.63;20.50;;;8.60;99.90;;;;;;5115364;28;20238;-59
2023/12/14 00:45:09;;;;;;;39.08;20.70;;;8.80;99.90;;;;;;5115400;28;20651;-59
2023/12/14 00:47:35;;;;;;;38.47;20.83;;;8.70;99.90;;;;;;5115579;28;20181;-59
2023/12/14 00:50:00;;;;;;;46.00;22.08;;;8.50;99.90;;;;;;5113452;28;20176;-59
2023/12/14 00:52:26;;;;;;;55.30;25.13;;;8.40;99.90;;;;;;5094689;28;20630;-58
2023/12/14 00:54:52;;;;;;;48.63;24.67;;;8.50;99.90;;;;;;5094749;28;20628;-59
2023/12/14 00:57:17;;;;;;;56.67;26.25;;;8.60;99.90;;;;;;5095226;28;20240;-59
2023/12/14 00:59:43;;;;;;;61.05;28.33;;;8.70;99.90;;;;;;5094601;28;20204;-59
2023/12/14 01:02:08;;;;;;;51.88;25.98;;;8.50;99.90;;;;;;5094638;28;20197;-59
2023/12/14 01:04:34;;;;;;;57.47;28.88;;;8.60;99.90;;;;;;5094817;28;20260;-58
2023/12/14 01:07:00;;;;;;;58.35;28.45;;;8.70;99.90;;;;;;5094543;28;20169;-59
2023/12/14 01:09:25;;;;;;;67.13;31.08;;;8.60;99.90;;;;;;5094614;28;20253;-56
2023/12/14 01:11:51;;;;;;;58.60;28.55;;;8.50;99.90;;;;;;5094545;28;20169;-58
2023/12/14 01:14:16;;;;;;;65.35;27.88;;;8.50;99.90;;;;;;5094770;28;20208;-58
2023/12/14 01:16:42;;;;;;;61.65;29.20;;;8.60;99.90;;;;;;5094380;28;20161;-59
2023/12/14 01:19:07;;;;;;;56.20;28.52;;;8.40;99.90;;;;;;5094387;28;20271;-58
2023/12/14 01:21:33;;;;;;;61.75;30.08;;;8.70;99.90;;;;;;5108490;28;20191;-59
2023/12/14 01:24:00;;;;;;;52.00;27.25;;;8.60;99.90;;;;;;5114329;28;20180;-59
2023/12/14 01:26:26;;;;;;;53.10;26.55;;;8.70;99.90;;;;;;5113966;28;20165;-58
2023/12/14 01:28:52;;;;;;;54.80;26.60;;;8.70;99.90;;;;;;5114529;28;20175;-59
2023/12/14 01:31:17;;;;;;;59.13;27.02;;;8.60;99.90;;;;;;5115194;28;20172;-58
2023/12/14 01:33:43;;;;;;;49.28;26.05;;;8.70;99.90;;;;;;5114620;28;20227;-56
2023/12/14 01:36:08;;;;;;;50.25;24.92;;;8.70;99.90;;;;;;5114326;28;20523;-58
2023/12/14 01:38:34;;;;;;;51.80;24.95;;;8.70;99.90;;;;;;5114354;28;20192;-59
2023/12/14 01:41:00;;;;;;;57.55;26.00;;;8.70;99.90;;;;;;5114566;28;20196;-54
2023/12/14 01:43:26;;;;;;;59.22;24.80;;;8.70;99.90;;;;;;5114354;28;20531;-59
2023/12/14 01:45:51;;;;;;;53.28;24.50;;;8.70;99.90;;;;;;5114171;28;20153;-58
2023/12/14 01:48:17;;;;;;;41.13;21.00;;;8.40;99.90;;;;;;5114555;28;20172;-58
2023/12/14 01:50:42;;;;;;;49.97;21.77;;;8.60;99.90;;;;;;5106691;28;20194;-57
2023/12/14 01:53:08;;;;;;;52.17;22.67;;;8.40;99.90;;;;;;5093339;28;20688;-59
2023/12/14 01:55:33;;;;;;;41.88;19.50;;;8.60;99.90;;;;;;5093638;28;20192;-57
2023/12/14 01:57:59;;;;;;;43.85;20.30;;;8.40;99.90;;;;;;5093603;28;20206;-58
2023/12/14 02:00:36;;;;;;;44.33;19.92;;;8.40;99.90;;;;;;5075526;28;20169;-58
2023/12/14 02:03:01;;;;;;;37.63;17.85;;;8.40;99.90;;;;;;5093486;28;20165;-58
2023/12/14 02:05:27;;;;;;;32.67;15.77;;;8.40;99.90;;;;;;5093443;28;20165;-58
2023/12/14 02:07:52;;;;;;;35.90;15.75;;;8.30;99.90;;;;;;5075283;28;20173;-57
2023/12/14 02:10:18;;;;;;;26.63;13.70;;;8.40;99.90;;;;;;5093727;28;20170;-56
2023/12/14 02:12:44;;;;;;;27.15;14.70;;;8.20;99.90;;;;;;5093643;28;20169;-58
2023/12/14 02:15:09;;;;;;;24.83;14.18;;;8.20;99.90;;;;;;5093528;28;20175;-55
2023/12/14 02:17:35;;;;;;;27.13;15.07;;;8.40;99.90;;;;;;5093108;28;20176;-58
2023/12/14 02:20:01;;;;;;;26.88;13.98;;;8.20;99.90;;;;;;5096436;28;20259;-59
2023/12/14 02:22:26;;;;;;;29.35;14.73;;;8.30;99.90;;;;;;5113746;28;20169;-57
2023/12/14 02:24:52;;;;;;;26.23;13.43;;;8.40;99.90;;;;;;5113753;28;20770;-57
2023/12/14 02:27:17;;;;;;;30.00;15.73;;;8.10;99.90;;;;;;5113833;28;20188;-59
2023/12/14 02:29:43;;;;;;;26.27;13.77;;;8.30;99.90;;;;;;5113302;28;20516;-54
2023/12/14 02:32:08;;;;;;;34.63;16.08;;;8.10;99.90;;;;;;5113323;28;20663;-56
2023/12/14 02:34:34;;;;;;;33.03;15.45;;;8.10;99.90;;;;;;5113126;28;20207;-58
2023/12/14 02:36:59;;;;;;;30.25;16.05;;;7.90;99.90;;;;;;5113154;28;20165;-55
2023/12/14 02:39:25;;;;;;;34.72;16.85;;;8.00;99.90;;;;;;5113232;28;20210;-58
2023/12/14 02:41:50;;;;;;;34.10;16.50;;;8.10;99.90;;;;;;5113188;28;20165;-57
2023/12/14 02:44:16;;;;;;;51.67;19.58;;;7.90;99.90;;;;;;5113390;28;20169;-55
2023/12/14 02:46:41;;;;;;;43.28;20.88;;;8.10;99.90;;;;;;5113017;28;20186;-54
2023/12/14 02:49:08;;;;;;;40.70;20.92;;;8.10;99.90;;;;;;5112655;28;20180;-57
2023/12/14 02:51:33;;;;;;;40.80;21.02;;;7.90;99.90;;;;;;5096036;28;20528;-50
2023/12/14 02:53:59;;;;;;;39.95;19.48;;;7.90;99.90;;;;;;5093563;28;20200;-54
2023/12/14 02:56:24;;;;;;;42.53;20.48;;;7.90;99.90;;;;;;5092753;28;20331;-56
2023/12/14 02:58:51;;;;;;;35.65;17.73;;;8.10;99.90;;;;;;5092483;28;20528;-54
2023/12/14 03:01:21;;;;;;;40.35;19.75;;;7.90;99.90;;;;;;5092873;28;20172;-58
2023/12/14 03:03:47;;;;;;;43.13;19.77;;;8.10;99.90;;;;;;5092972;28;20169;-56
2023/12/14 03:06:12;;;;;;;37.38;19.10;;;7.80;99.90;;;;;;5092301;28;20231;-57
2023/12/14 03:08:38;;;;;;;47.60;21.58;;;8.00;99.90;;;;;;5103350;28;20179;-56
2023/12/14 03:11:03;;;;;;;50.35;22.98;;;7.80;99.90;;;;;;5112836;28;20213;-54
2023/12/14 03:13:29;;;;;;;49.40;23.60;;;7.80;99.90;;;;;;5112426;28;20197;-58
2023/12/14 03:15:55;;;;;;;39.78;19.38;;;7.70;99.90;;;;;;5112541;28;20172;-52
2023/12/14 03:18:20;;;;;;;40.22;17.85;;;7.70;99.90;;;;;;5112500;28;20173;-58
2023/12/14 03:20:46;;;;;;;41.00;19.58;;;7.70;99.90;;;;;;5103079;28;20298;-56
2023/12/14 03:23:11;;;;;;;38.63;18.98;;;7.70;99.90;;;;;;5092032;28;20260;-49
2023/12/14 03:25:37;;;;;;;40.30;19.50;;;7.70;99.90;;;;;;5092187;28;20546;-49
2023/12/14 03:28:03;;;;;;;40.65;18.77;;;7.70;99.90;;;;;;5091960;28;20212;-49
2023/12/14 03:30:28;;;;;;;33.15;16.55;;;7.70;99.90;;;;;;5092153;28;20169;-48
2023/12/14 03:32:54;;;;;;;37.40;18.83;;;7.80;99.90;;;;;;5091830;28;20679;-49
2023/12/14 03:35:19;;;;;;;38.33;18.35;;;7.80;99.90;;;;;;5091785;28;20637;-50
2023/12/14 03:37:45;;;;;;;34.15;19.02;;;7.60;99.90;;;;;;5092218;28;20641;-49
2023/12/14 03:40:10;;;;;;;43.20;19.35;;;7.80;99.90;;;;;;5091970;28;20660;-49
2023/12/14 03:42:36;;;;;;;39.42;18.60;;;7.60;99.90;;;;;;5091671;28;20173;-48
2023/12/14 03:45:02;;;;;;;49.70;20.10;;;7.60;99.90;;;;;;5091703;28;20164;-48
2023/12/14 03:47:27;;;;;;;42.85;20.23;;;7.60;99.90;;;;;;5091867;28;20170;-49
2023/12/14 03:49:53;;;;;;;32.95;18.42;;;7.40;99.90;;;;;;5091554;28;20173;-47
2023/12/14 03:52:19;;;;;;;36.80;20.15;;;7.60;99.90;;;;;;5091358;28;20220;-47
2023/12/14 03:54:44;;;;;;;34.22;17.88;;;7.40;99.90;;;;;;5091974;28;20258;-49
2023/12/14 03:57:10;;;;;;;33.10;17.67;;;7.40;99.90;;;;;;5091516;28;20498;-48
2023/12/14 03:59:40;;;;;;;37.78;18.65;;;7.50;99.90;;;;;;5091440;28;20177;-49
2023/12/14 04:02:05;;;;;;;31.10;16.50;;;7.60;99.90;;;;;;5091720;28;20173;-49
2023/12/14 04:04:31;;;;;;;39.42;20.02;;;7.30;99.90;;;;;;5091730;28;20223;-48
2023/12/14 04:06:56;;;;;;;40.78;19.65;;;7.50;99.90;;;;;;5091719;28;20553;-48
2023/12/14 04:09:22;;;;;;;35.22;16.90;;;7.50;99.90;;;;;;5091394;28;20209;-49
2023/12/14 04:11:47;;;;;;;44.17;20.67;;;7.50;99.90;;;;;;5091826;28;20166;-49
2023/12/14 04:14:13;;;;;;;48.00;21.65;;;7.60;99.90;;;;;;5091259;28;20204;-49
2023/12/14 04:16:39;;;;;;;46.65;20.70;;;7.50;99.90;;;;;;5091354;28;20240;-50
2023/12/14 04:19:09;;;;;;;44.03;19.08;;;7.50;99.90;;;;;;5091326;28;20165;-50
2023/12/14 04:21:35;;;;;;;57.15;20.73;;;7.50;99.90;;;;;;5073417;28;20524;-50
2023/12/14 04:24:01;;;;;;;37.72;18.92;;;7.30;99.90;;;;;;5091216;28;20173;-55
2023/12/14 04:26:27;;;;;;;29.20;17.13;;;7.30;99.90;;;;;;5091215;28;20173;-59
2023/12/14 04:28:53;;;;;;;41.05;19.45;;;7.30;99.90;;;;;;5091537;28;20193;-60
2023/12/14 04:31:18;;;;;;;38.40;18.38;;;7.50;99.90;;;;;;5091101;28;20179;-53
2023/12/14 04:33:44;;;;;;;34.95;16.25;;;7.30;99.90;;;;;;5091577;28;20212;-60
2023/12/14 04:36:10;;;;;;;38.35;18.17;;;7.50;99.90;;;;;;5091136;28;20165;-60
2023/12/14 04:38:35;;;;;;;37.17;19.17;;;7.20;99.90;;;;;;5091365;28;20173;-57
2023/12/14 04:41:01;;;;;;;30.50;14.60;;;7.30;99.90;;;;;;5091055;28;20554;-55
2023/12/14 04:43:29;;;;;;;43.92;19.67;;;7.20;99.90;;;;;;5091027;28;20681;-57
2023/12/14 04:45:54;;;;;;;38.97;20.67;;;7.30;99.90;;;;;;5090942;28;20625;-60
2023/12/14 04:48:20;;;;;;;39.80;20.25;;;7.20;99.90;;;;;;5091069;28;20181;-60
2023/12/14 04:50:46;;;;;;;38.10;19.58;;;7.40;99.90;;;;;;5091775;28;20177;-59
2023/12/14 04:53:11;;;;;;;35.38;18.30;;;7.20;99.90;;;;;;5090702;28;20224;-59
2023/12/14 04:55:37;;;;;;;34.33;17.15;;;7.10;99.90;;;;;;5091066;28;20196;-56
2023/12/14 04:58:02;;;;;;;35.40;16.23;;;7.30;99.90;;;;;;5090930;28;20188;-52
2023/12/14 05:00:28;;;;;;;30.40;18.63;;;7.40;99.90;;;;;;5090815;28;20169;-55
2023/12/14 05:02:53;;;;;;;38.97;16.95;;;7.30;99.90;;;;;;5094463;28;20200;-59
2023/12/14 05:05:19;;;;;;;30.60;17.05;;;7.10;99.90;;;;;;5094673;28;20166;-57
2023/12/14 05:07:44;;;;;;;33.50;17.73;;;7.30;99.90;;;;;;5094912;28;20177;-59
2023/12/14 05:10:10;;;;;;;34.85;17.73;;;7.00;99.90;;;;;;5094541;28;20169;-60
2023/12/14 05:12:36;;;;;;;28.27;15.07;;;7.20;99.90;;;;;;5094695;28;20169;-59
2023/12/14 05:15:02;;;;;;;34.03;19.30;;;7.10;99.90;;;;;;5094453;28;20681;-60
2023/12/14 05:17:28;;;;;;;33.80;17.95;;;7.20;99.90;;;;;;5094366;28;20170;-59
2023/12/14 05:19:53;;;;;;;39.22;19.40;;;7.20;99.90;;;;;;5098006;28;20536;-59
2023/12/14 05:22:19;;;;;;;27.77;15.52;;;7.30;99.90;;;;;;5114286;28;20183;-55
2023/12/14 05:24:47;;;;;;;34.00;18.48;;;7.10;99.90;;;;;;5114779;28;20164;-61
2023/12/14 05:27:12;;;;;;;39.35;19.85;;;7.10;99.90;;;;;;5114535;28;20169;-59
2023/12/14 05:29:38;;;;;;;38.13;18.67;;;7.10;99.90;;;;;;5114483;28;20190;-55
2023/12/14 05:32:03;;;;;;;41.65;20.23;;;7.20;99.90;;;;;;5114450;28;20169;-57
2023/12/14 05:34:29;;;;;;;39.38;19.52;;;7.00;99.90;;;;;;5114412;28;20200;-61
2023/12/14 05:36:55;;;;;;;42.67;20.55;;;7.20;99.90;;;;;;5114510;28;20160;-59
2023/12/14 05:39:20;;;;;;;42.90;18.60;;;7.00;99.90;;;;;;5114055;28;20229;-59
2023/12/14 05:41:46;;;;;;;41.20;21.45;;;7.20;99.90;;;;;;5114837;28;20242;-58
2023/12/14 05:44:11;;;;;;;48.33;23.08;;;7.00;99.90;;;;;;5114019;28;20165;-54
2023/12/14 05:46:37;;;;;;;41.30;20.23;;;7.00;99.90;;;;;;5114196;28;20171;-57
2023/12/14 05:49:03;;;;;;;40.40;19.35;;;6.90;99.90;;;;;;5113997;28;20695;-56
2023/12/14 05:51:30;;;;;;;40.75;20.13;;;7.00;99.90;;;;;;5108143;28;20157;-59
2023/12/14 05:53:56;;;;;;;47.78;22.90;;;7.00;99.90;;;;;;5112939;28;20205;-57
2023/12/14 05:56:21;;;;;;;38.33;18.30;;;7.10;99.90;;;;;;5113472;28;20167;-56
2023/12/14 05:58:47;;;;;;;37.55;18.85;;;7.00;99.90;;;;;;5113819;28;20164;-59
2023/12/14 06:01:13;;;;;;;49.72;19.42;;;6.80;99.90;;;;;;5113247;28;20201;-56
2023/12/14 06:03:38;;;;;;;41.47;20.23;;;7.10;99.90;;;;;;5113304;28;20289;-59
2023/12/14 06:06:04;;;;;;;46.45;21.15;;;7.10;99.90;;;;;;5113129;28;20165;-53
2023/12/14 06:08:29;;;;;;;41.47;19.63;;;6.90;99.90;;;;;;5113235;28;20314;-56
2023/12/14 06:10:55;;;;;;;38.42;20.23;;;7.00;99.90;;;;;;5113007;28;20184;-54
2023/12/14 06:13:21;;;;;;;34.53;16.85;;;7.10;99.90;;;;;;5112641;28;20200;-55
2023/12/14 06:15:46;;;;;;;36.53;17.63;;;6.90;99.90;;;;;;5113567;28;20180;-60
2023/12/14 06:18:13;;;;;;;34.38;16.23;;;7.10;99.90;;;;;;5113036;28;20160;-59
2023/12/14 06:20:40;;;;;;;38.00;17.05;;;7.00;99.90;;;;;;5112562;28;20172;-60
2023/12/14 06:23:06;;;;;;;41.63;19.85;;;6.90;99.90;;;;;;5113020;28;20181;-59
2023/12/14 06:25:31;;;;;;;40.88;20.15;;;6.90;99.90;;;;;;5112879;28;20616;-58
2023/12/14 06:27:57;;;;;;;48.95;21.48;;;7.00;99.90;;;;;;5113082;28;20225;-60
2023/12/14 06:30:23;;;;;;;43.33;20.67;;;7.00;99.90;;;;;;5112840;28;20631;-59
2023/12/14 06:32:49;;;;;;;41.13;19.13;;;7.00;99.90;;;;;;5113038;28;20168;-56
2023/12/14 06:35:15;;;;;;;42.75;21.63;;;6.90;99.90;;;;;;5113408;28;20172;-58
2023/12/14 06:37:41;;;;;;;35.25;18.30;;;6.80;99.90;;;;;;5112734;28;20247;-61
2023/12/14 06:40:08;;;;;;;38.17;17.63;;;7.00;99.90;;;;;;5112780;28;20169;-58
2023/12/14 06:42:34;;;;;;;33.45;16.20;;;6.80;99.90;;;;;;5112634;28;20533;-60
2023/12/14 06:45:02;;;;;;;41.08;19.52;;;6.90;99.90;;;;;;5112346;28;20179;-60
2023/12/14 06:47:28;;;;;;;39.42;18.02;;;6.90;99.90;;;;;;5112498;28;20244;-58
2023/12/14 06:49:55;;;;;;;36.50;19.25;;;6.90;99.90;;;;;;5108927;28;20263;-59
2023/12/14 06:52:21;;;;;;;35.05;17.85;;;6.70;99.90;;;;;;5091637;28;20735;-57
2023/12/14 06:54:47;;;;;;;35.45;17.10;;;6.80;99.90;;;;;;5092184;28;20295;-56
2023/12/14 06:57:12;;;;;;;44.88;20.95;;;6.90;99.90;;;;;;5092187;28;20249;-59
2023/12/14 06:59:38;;;;;;;42.47;21.10;;;6.80;99.90;;;;;;5092098;28;20528;-58
2023/12/14 07:02:03;;;;;;;37.85;20.00;;;6.80;99.90;;;;;;5073695;28;20542;-58
2023/12/14 07:04:29;;;;;;;35.10;17.08;;;6.80;99.90;;;;;;5091893;28;20227;-63
2023/12/14 07:06:55;;;;;;;44.40;21.65;;;6.80;99.90;;;;;;5091608;28;20174;-58
2023/12/14 07:09:20;;;;;;;37.45;19.48;;;6.70;99.90;;;;;;5091719;28;20184;-60
2023/12/14 07:11:46;;;;;;;41.65;21.13;;;6.70;99.90;;;;;;5092198;28;20551;-58
2023/12/14 07:14:12;;;;;;;38.67;18.05;;;6.60;99.90;;;;;;5091625;28;20209;-58
2023/12/14 07:16:38;;;;;;;36.67;18.00;;;6.60;99.90;;;;;;5091461;28;20617;-50
2023/12/14 07:19:03;;;;;;;40.95;19.08;;;6.60;99.90;;;;;;5091873;28;20176;-55
2023/12/14 07:21:29;;;;;;;34.75;17.23;;;6.80;99.90;;;;;;5091640;28;20252;-59
2023/12/14 07:23:54;;;;;;;38.75;18.65;;;6.80;99.90;;;;;;5091169;28;20240;-50
2023/12/14 07:26:20;;;;;;;37.35;18.55;;;6.80;99.90;;;;;;5091650;28;20169;-51
2023/12/14 07:28:45;;;;;;;29.52;15.02;;;6.70;99.90;;;;;;5091766;28;20268;-50
2023/12/14 07:31:11;;;;;;;28.98;15.27;;;6.70;99.90;;;;;;5091408;28;20185;-56
2023/12/14 07:33:36;;;;;;;38.42;17.80;;;6.60;99.90;;;;;;5091225;28;20636;-51
2023/12/14 07:36:04;;;;;;;32.00;16.92;;;6.70;99.90;;;;;;5091378;28;20170;-51
2023/12/14 07:38:30;;;;;;;40.08;18.67;;;6.70;99.90;;;;;;5091556;28;20256;-50
2023/12/14 07:40:55;;;;;;;32.85;16.08;;;6.80;99.90;;;;;;5073242;28;20589;-49
2023/12/14 07:43:21;;;;;;;35.75;18.08;;;6.80;99.90;;;;;;5091143;28;20581;-52
2023/12/14 07:45:47;;;;;;;37.05;17.27;;;6.70;99.90;;;;;;5091560;28;20641;-50
2023/12/14 07:48:13;;;;;;;28.05;15.38;;;6.50;99.90;;;;;;5091555;28;20536;-50
2023/12/14 07:50:38;;;;;;;35.75;17.27;;;6.60;99.90;;;;;;5091340;28;20173;-52
2023/12/14 07:53:04;;;;;;;34.20;16.23;;;6.70;99.90;;;;;;5090739;28;20252;-50
2023/12/14 07:55:31;;;;;;;27.58;16.10;;;6.60;99.90;;;;;;5091284;28;20296;-51
2023/12/14 07:57:56;;;;;;;31.42;15.10;;;6.60;99.90;;;;;;5090826;28;20180;-49
2023/12/14 08:00:22;;;;;;;29.27;14.70;;;6.50;99.90;;;;;;5090985;28;20170;-50
2023/12/14 08:02:47;;;;;;;32.08;14.23;;;6.60;99.90;;;;;;5090984;28;20189;-49
2023/12/14 08:05:13;;;;;;;27.23;14.82;;;6.50;99.90;;;;;;5091271;28;20710;-50
2023/12/14 08:07:39;;;;;;;28.23;14.02;;;6.60;99.90;;;;;;5090931;28;20170;-52
2023/12/14 08:10:04;;;;;;;30.05;15.88;;;6.50;99.90;;;;;;5072760;28;20256;-49
2023/12/14 08:12:30;;;;;;;33.25;17.48;;;6.50;99.90;;;;;;5090838;28;20177;-49
2023/12/14 08:14:56;;;;;;;31.80;16.60;;;6.60;99.90;;;;;;5090992;28;20205;-51
2023/12/14 08:17:21;;;;;;;30.90;15.65;;;6.60;99.90;;;;;;5090573;28;20222;-50
2023/12/14 08:19:47;;;;;;;33.95;17.15;;;6.60;99.90;;;;;;5100171;28;20225;-58
2023/12/14 08:22:15;;;;;;;27.58;14.90;;;6.60;99.90;;;;;;5111749;28;20176;-59
2023/12/14 08:24:41;;;;;;;38.25;18.38;;;6.60;99.90;;;;;;5111111;28;20536;-60
2023/12/14 08:27:06;;;;;;;35.55;17.80;;;6.60;99.90;;;;;;5111654;28;20172;-58
2023/12/14 08:29:32;;;;;;;34.83;18.70;;;6.50;99.90;;;;;;5111551;28;20160;-60
2023/12/14 08:31:59;;;;;;;38.90;19.15;;;6.50;99.90;;;;;;5111499;28;20173;-60
2023/12/14 08:34:25;;;;;;;31.30;17.40;;;6.60;99.90;;;;;;5111470;28;20679;-60
2023/12/14 08:36:51;;;;;;;31.98;16.58;;;6.50;99.90;;;;;;5115351;28;20639;-60
2023/12/14 08:39:17;;;;;;;38.65;19.15;;;6.50;99.90;;;;;;5115956;28;20173;-60
2023/12/14 08:41:42;;;;;;;34.50;18.67;;;6.50;99.90;;;;;;5115851;28;20226;-59
2023/12/14 08:44:08;;;;;;;34.80;17.90;;;6.50;99.90;;;;;;5115449;28;20195;-60
2023/12/14 08:46:45;;;;;;;32.10;18.35;;;6.40;99.90;;;;;;5115333;28;20169;-60
2023/12/14 08:49:11;;;;;;;34.58;19.30;;;6.30;99.90;;;;;;5111294;28;20169;-60
2023/12/14 08:51:38;;;;;;;29.67;15.45;;;6.30;99.90;;;;;;5094700;28;20296;-59
2023/12/14 08:54:04;;;;;;;31.73;17.13;;;6.50;99.90;;;;;;5095001;28;20219;-59
2023/12/14 08:56:29;;;;;;;31.23;17.55;;;6.50;99.90;;;;;;5095178;28;20174;-60
2023/12/14 08:58:55;;;;;;;33.53;17.85;;;6.40;99.90;;;;;;5110174;28;20666;-60
2023/12/14 09:01:22;;;;;;;34.38;18.55;;;6.40;99.90;;;;;;5115289;28;20168;-51
2023/12/14 09:03:47;;;;;;;31.73;16.90;;;6.40;99.90;;;;;;5115362;28;20165;-49
2023/12/14 09:06:14;;;;;;;32.47;18.25;;;6.30;99.90;;;;;;5115698;28;20647;-51
2023/12/14 09:08:40;;;;;;;32.15;18.60;;;6.50;99.90;;;;;;5114889;28;20168;-51
2023/12/14 09:11:06;;;;;;;28.02;17.40;;;6.50;99.90;;;;;;5115252;28;20181;-50
2023/12/14 09:13:32;;;;;;;28.23;16.23;;;6.40;99.90;;;;;;5114847;28;20200;-51
2023/12/14 09:15:57;;;;;;;27.15;15.82;;;6.40;99.90;;;;;;5114819;28;20655;-52
2023/12/14 09:18:23;;;;;;;31.30;17.13;;;6.40;99.90;;;;;;5114815;28;20172;-50
2023/12/14 09:20:50;;;;;;;28.45;16.17;;;6.30;99.90;;;;;;5097780;28;20669;-54
2023/12/14 09:23:16;;;;;;;31.13;16.80;;;6.30;99.90;;;;;;5114997;28;20632;-52
2023/12/14 09:25:42;;;;;;;31.30;13.10;;;6.50;99.90;;;;;;5114757;28;20544;-51
2023/12/14 09:28:07;;;;;;;24.52;14.02;;;6.40;99.90;;;;;;5114617;28;20178;-49
2023/12/14 09:30:33;;;;;;;31.27;18.77;;;6.30;99.90;;;;;;5114589;28;20169;-50
2023/12/14 09:32:58;;;;;;;29.58;16.85;;;6.40;99.90;;;;;;5114465;28;20185;-49
2023/12/14 09:35:24;;;;;;;28.27;16.33;;;6.30;99.90;;;;;;5114488;28;20180;-49
2023/12/14 09:37:50;;;;;;;31.05;17.20;;;6.40;99.90;;;;;;5114443;28;20168;-49
2023/12/14 09:40:16;;;;;;;21.95;13.80;;;6.40;99.90;;;;;;5114851;28;20215;-49
2023/12/14 09:42:42;;;;;;;24.80;14.07;;;6.50;99.90;;;;;;5114570;28;20168;-49
2023/12/14 09:45:09;;;;;;;31.50;16.27;;;6.30;99.90;;;;;;5114328;28;20636;-51
2023/12/14 09:47:36;;;;;;;32.30;17.13;;;6.20;99.90;;;;;;5113732;28;20184;-49
2023/12/14 09:50:03;;;;;;;32.78;18.52;;;6.40;99.90;;;;;;5113826;28;20169;-49
2023/12/14 09:52:29;;;;;;;31.65;16.95;;;6.50;99.90;;;;;;5114019;28;20220;-49
2023/12/14 09:54:54;;;;;;;25.63;14.82;;;6.50;99.90;;;;;;5113998;28;20207;-50
2023/12/14 09:57:20;;;;;;;26.38;15.55;;;6.30;99.90;;;;;;5114124;28;20248;-50
2023/12/14 09:59:53;;;;;;;31.88;16.08;;;6.40;99.90;;;;;;5114651;28;20251;-52
2023/12/14 10:02:18;;;;;;;31.50;16.50;;;6.30;99.90;;;;;;5113926;28;20161;-50
2023/12/14 10:04:44;;;;;;;26.95;15.43;;;6.30;99.90;;;;;;5114103;28;20259;-51
2023/12/14 10:07:10;;;;;;;23.83;14.73;;;6.50;99.90;;;;;;5114134;28;20180;-49
2023/12/14 10:09:37;;;;;;;28.77;16.20;;;6.40;99.90;;;;;;5113587;28;20202;-49
2023/12/14 10:12:07;;;;;;;31.42;17.08;;;6.30;99.90;;;;;;5113714;28;20322;-49
2023/12/14 10:14:33;;;;;;;31.88;16.63;;;6.30;99.90;;;;;;5113655;28;20208;-49
2023/12/14 10:17:12;;;;;;;26.92;16.05;;;6.40;99.90;;;;;;5113703;28;20175;-57
2023/12/14 10:19:43;;;;;;;28.80;17.30;;;6.50;99.90;;;;;;5103583;28;20260;-50
2023/12/14 10:22:08;;;;;;;29.90;17.58;;;6.50;99.90;;;;;;5093256;28;20161;-55
2023/12/14 10:24:35;;;;;;;27.98;15.50;;;6.50;99.90;;;;;;5093418;28;20191;-53
2023/12/14 10:27:07;;;;;;;31.23;17.55;;;6.40;99.90;;;;;;5093059;28;20169;-49
2023/12/14 10:29:34;;;;;;;28.27;14.73;;;6.40;99.90;;;;;;5093036;28;20162;-49
2023/12/14 10:32:03;;;;;;;23.38;14.85;;;6.30;99.90;;;;;;5092965;28;20529;-53
2023/12/14 10:34:29;;;;;;;26.92;15.70;;;6.30;99.90;;;;;;5093133;28;20307;-56
2023/12/14 10:36:55;;;;;;;31.77;16.65;;;6.40;99.90;;;;;;5093128;28;20213;-51
2023/12/14 10:39:21;;;;;;;27.92;16.25;;;6.40;99.90;;;;;;5092915;28;20208;-56
2023/12/14 10:41:48;;;;;;;28.15;16.25;;;6.30;99.90;;;;;;5093255;28;20213;-50
2023/12/14 10:44:14;;;;;;;28.50;16.48;;;6.50;99.90;;;;;;5093130;28;20655;-50
2023/12/14 10:46:42;;;;;;;26.45;15.88;;;6.50;99.90;;;;;;5092686;28;20568;-54
2023/12/14 10:49:07;;;;;;;29.88;16.50;;;6.50;99.90;;;;;;5097945;28;20527;-55
2023/12/14 10:51:37;;;;;;;24.45;16.13;;;6.50;99.90;;;;;;5112523;28;20173;-54
2023/12/14 10:54:03;;;;;;;26.20;15.10;;;6.60;99.90;;;;;;5112899;28;20200;-57
2023/12/14 10:56:29;;;;;;;34.58;17.55;;;6.50;99.90;;;;;;5112915;28;20213;-57
2023/12/14 10:59:00;;;;;;;24.73;15.35;;;6.60;99.90;;;;;;5111967;28;20161;-56
2023/12/14 11:01:25;;;;;;;26.85;16.60;;;6.60;99.90;;;;;;5112749;28;20221;-51
2023/12/14 11:03:56;;;;;;;24.83;15.60;;;6.60;99.90;;;;;;5113020;28;20172;-57
2023/12/14 11:06:31;;;;;;;27.33;15.40;;;6.60;99.90;;;;;;5112956;28;20172;-54
2023/12/14 11:09:00;;;;;;;26.02;16.08;;;6.60;99.90;;;;;;5112698;28;20555;-52
2023/12/14 11:11:29;;;;;;;25.35;15.55;;;6.40;99.90;;;;;;5112842;28;20208;-57
2023/12/14 11:13:54;;;;;;;26.17;15.85;;;6.50;99.90;;;;;;5112735;28;20204;-51
2023/12/14 11:16:21;;;;;;;26.50;16.60;;;6.60;99.90;;;;;;5112459;28;20571;-54
2023/12/14 11:18:47;;;;;;;27.75;16.42;;;6.60;99.90;;;;;;5108207;28;20172;-54
2023/12/14 11:21:19;;;;;;;25.75;15.82;;;6.40;99.90;;;;;;5092395;28;20178;-54
2023/12/14 11:23:45;;;;;;;26.52;15.95;;;6.50;99.90;;;;;;5092493;28;20195;-51
2023/12/14 11:26:10;;;;;;;25.90;15.77;;;6.50;99.90;;;;;;5092059;28;20177;-51
2023/12/14 11:28:38;;;;;;;27.92;15.68;;;6.60;99.90;;;;;;5091943;28;20263;-55
2023/12/14 11:31:07;;;;;;;24.20;14.45;;;6.40;99.90;;;;;;5091913;28;20629;-56
2023/12/14 11:33:34;;;;;;;27.67;16.08;;;6.40;99.90;;;;;;5092020;28;20196;-52
2023/12/14 11:36:05;;;;;;;25.27;15.45;;;6.40;99.90;;;;;;5092116;28;20173;-55
2023/12/14 11:38:31;;;;;;;27.30;16.08;;;6.50;99.90;;;;;;5091791;28;20170;-51
2023/12/14 11:40:58;;;;;;;27.92;17.52;;;6.50;99.90;;;;;;5091766;28;20172;-50
2023/12/14 11:43:26;;;;;;;25.10;16.17;;;6.60;99.90;;;;;;5092071;28;20255;-52
2023/12/14 11:45:52;;;;;;;25.80;16.73;;;6.50;99.90;;;;;;5091680;28;20187;-53
2023/12/14 11:48:20;;;;;;;25.10;15.35;;;6.50;99.90;;;;;;5092028;28;20169;-50
2023/12/14 11:50:46;;;;;;;25.88;15.18;;;6.50;99.90;;;;;;5111640;28;20212;-53
2023/12/14 11:53:12;;;;;;;23.10;14.82;;;6.60;99.90;;;;;;5111134;28;20227;-53
2023/12/14 11:55:39;;;;;;;24.52;15.55;;;6.60;99.90;;;;;;5112017;28;20168;-60
2023/12/14 11:58:06;;;;;;;22.30;14.13;;;6.50;99.90;;;;;;5111364;28;20161;-60
2023/12/14 12:00:33;;;;;;;20.58;13.18;;;6.40;99.90;;;;;;5111702;28;20173;-58
2023/12/14 12:03:15;;;;;;;24.42;14.63;;;6.50;99.90;;;;;;5111445;28;20184;-60
2023/12/14 12:05:43;;;;;;;21.13;13.55;;;6.50;99.90;;;;;;5111610;28;20216;-60
2023/12/14 12:08:10;;;;;;;25.15;14.63;;;6.50;99.90;;;;;;5111247;28;20249;-60
2023/12/14 12:10:37;;;;;;;20.83;13.57;;;6.40;99.90;;;;;;5113238;28;20196;-60
2023/12/14 12:13:04;;;;;;;20.83;14.30;;;6.40;99.90;;;;;;5115372;28;20226;-60
2023/12/14 12:15:35;;;;;;;24.67;14.27;;;6.40;99.90;;;;;;5115476;28;20169;-60
2023/12/14 12:18:05;;;;;;;22.70;13.88;;;6.50;99.90;;;;;;5115803;28;20209;-61
2023/12/14 12:20:32;;;;;;;20.42;12.75;;;6.50;99.90;;;;;;5096043;28;20535;-60
2023/12/14 12:22:57;;;;;;;20.40;14.15;;;6.40;99.90;;;;;;5095062;28;20169;-60
2023/12/14 12:25:23;;;;;;;18.02;13.02;;;6.60;99.90;;;;;;5094861;28;20188;-61
2023/12/14 12:27:49;;;;;;;19.23;13.27;;;6.60;99.90;;;;;;5094748;28;20188;-61
2023/12/14 12:30:15;;;;;;;19.67;12.73;;;6.60;99.90;;;;;;5095330;28;20169;-60